sensor_id;sensor_type;location;lat;lon;timestamp;pressure;altitude;pressure_sealevel;temperature
73673;BMP280;61972;19.480;-99.240;2023-05-17T00:02:02;77744.50;;;31.30
73673;BMP280;61972;19.480;-99.240;2023-05-17T00:04:28;77748.13;;;31.29
73673;BMP280;61972;19.480;-99.240;2023-05-17T00:06:54;77750.09;;;31.26
73673;BMP280;61972;19.480;-99.240;2023-05-17T00:09:21;77756.91;;;31.25
73673;BMP280;61972;19.480;-99.240;2023-05-17T00:11:50;77762.19;;;31.25
73673;BMP280;61972;19.480;-99.240;2023-05-17T00:14:16;77759.53;;;31.25
73673;BMP280;61972;19.480;-99.240;2023-05-17T00:16:42;77751.63;;;31.25
73673;BMP280;61972;19.480;-99.240;2023-05-17T00:19:08;77747.44;;;31.26
73673;BMP280;61972;19.480;-99.240;2023-05-17T00:21:34;77753.81;;;31.27
73673;BMP280;61972;19.480;-99.240;2023-05-17T00:24:01;77754.94;;;31.28
73673;BMP280;61972;19.480;-99.240;2023-05-17T00:26:27;77762.28;;;31.27
73673;BMP280;61972;19.480;-99.240;2023-05-17T00:28:53;77763.41;;;31.28
73673;BMP280;61972;19.480;-99.240;2023-05-17T00:31:19;77773.00;;;31.30
73673;BMP280;61972;19.480;-99.240;2023-05-17T00:33:46;77774.66;;;31.31
73673;BMP280;61972;19.480;-99.240;2023-05-17T00:36:12;77778.66;;;31.38
73673;BMP280;61972;19.480;-99.240;2023-05-17T00:38:38;77781.50;;;31.43
73673;BMP280;61972;19.480;-99.240;2023-05-17T00:41:04;77778.44;;;31.45
73673;BMP280;61972;19.480;-99.240;2023-05-17T00:43:40;77773.41;;;31.50
73673;BMP280;61972;19.480;-99.240;2023-05-17T00:46:06;77787.84;;;31.54
73673;BMP280;61972;19.480;-99.240;2023-05-17T00:48:32;77789.47;;;31.55
73673;BMP280;61972;19.480;-99.240;2023-05-17T00:50:59;77793.66;;;31.54
73673;BMP280;61972;19.480;-99.240;2023-05-17T00:53:25;77803.13;;;31.53
73673;BMP280;61972;19.480;-99.240;2023-05-17T00:55:53;77800.94;;;31.51
73673;BMP280;61972;19.480;-99.240;2023-05-17T00:58:23;77804.53;;;31.49
73673;BMP280;61972;19.480;-99.240;2023-05-17T01:00:50;77805.53;;;31.48
73673;BMP280;61972;19.480;-99.240;2023-05-17T01:03:20;77802.75;;;31.45
73673;BMP280;61972;19.480;-99.240;2023-05-17T01:05:50;77806.38;;;31.44
73673;BMP280;61972;19.480;-99.240;2023-05-17T01:08:16;77810.97;;;31.41
73673;BMP280;61972;19.480;-99.240;2023-05-17T01:13:35;77813.94;;;31.36
73673;BMP280;61972;19.480;-99.240;2023-05-17T01:22:17;77816.59;;;31.36
73673;BMP280;61972;19.480;-99.240;2023-05-17T01:25:17;77833.13;;;31.39
73673;BMP280;61972;19.480;-99.240;2023-05-17T01:27:49;77832.13;;;31.41
73673;BMP280;61972;19.480;-99.240;2023-05-17T01:30:19;77829.47;;;31.41
73673;BMP280;61972;19.480;-99.240;2023-05-17T01:32:45;77835.75;;;31.39
73673;BMP280;61972;19.480;-99.240;2023-05-17T01:35:12;77830.47;;;31.39
73673;BMP280;61972;19.480;-99.240;2023-05-17T01:37:40;77830.47;;;31.39
73673;BMP280;61972;19.480;-99.240;2023-05-17T01:40:08;77832.69;;;31.41
73673;BMP280;61972;19.480;-99.240;2023-05-17T01:42:38;77826.41;;;31.43
73673;BMP280;61972;19.480;-99.240;2023-05-17T01:45:22;77831.38;;;31.47
73673;BMP280;61972;19.480;-99.240;2023-05-17T01:47:59;77837.34;;;31.50
73673;BMP280;61972;19.480;-99.240;2023-05-17T01:50:32;77844.25;;;31.52
73673;BMP280;61972;19.480;-99.240;2023-05-17T01:53:10;77839.56;;;31.52
73673;BMP280;61972;19.480;-99.240;2023-05-17T01:55:56;77839.44;;;31.50
73673;BMP280;61972;19.480;-99.240;2023-05-17T01:58:26;77836.78;;;31.50
73673;BMP280;61972;19.480;-99.240;2023-05-17T02:00:55;77840.97;;;31.49
73673;BMP280;61972;19.480;-99.240;2023-05-17T02:03:22;77836.66;;;31.47
73673;BMP280;61972;19.480;-99.240;2023-05-17T02:05:49;77850.44;;;31.48
73673;BMP280;61972;19.480;-99.240;2023-05-17T02:08:15;77852.50;;;31.47
73673;BMP280;61972;19.480;-99.240;2023-05-17T02:10:41;77855.28;;;31.50
73673;BMP280;61972;19.480;-99.240;2023-05-17T02:13:07;77851.13;;;31.51
73673;BMP280;61972;19.480;-99.240;2023-05-17T02:15:33;77843.75;;;31.51
73673;BMP280;61972;19.480;-99.240;2023-05-17T02:18:10;77847.03;;;31.55
73673;BMP280;61972;19.480;-99.240;2023-05-17T02:20:36;77850.78;;;31.56
73673;BMP280;61972;19.480;-99.240;2023-05-17T02:23:02;77854.56;;;31.57
73673;BMP280;61972;19.480;-99.240;2023-05-17T02:25:28;77850.66;;;31.53
73673;BMP280;61972;19.480;-99.240;2023-05-17T02:27:55;77856.94;;;31.51
73673;BMP280;61972;19.480;-99.240;2023-05-17T02:30:21;77856.41;;;31.51
73673;BMP280;61972;19.480;-99.240;2023-05-17T02:32:47;77857.38;;;31.49
73673;BMP280;61972;19.480;-99.240;2023-05-17T02:35:14;77859.31;;;31.46
73673;BMP280;61972;19.480;-99.240;2023-05-17T02:37:40;77861.31;;;31.43
73673;BMP280;61972;19.480;-99.240;2023-05-17T02:40:07;77862.84;;;31.42
73673;BMP280;61972;19.480;-99.240;2023-05-17T02:42:35;77865.50;;;31.42
73673;BMP280;61972;19.480;-99.240;2023-05-17T02:45:03;77875.06;;;31.44
73673;BMP280;61972;19.480;-99.240;2023-05-17T02:47:33;77878.50;;;31.49
73673;BMP280;61972;19.480;-99.240;2023-05-17T02:49:59;77879.72;;;31.53
73673;BMP280;61972;19.480;-99.240;2023-05-17T02:52:25;77887.78;;;31.56
73673;BMP280;61972;19.480;-99.240;2023-05-17T02:54:51;77890.97;;;31.56
73673;BMP280;61972;19.480;-99.240;2023-05-17T02:57:18;77888.34;;;31.56
73673;BMP280;61972;19.480;-99.240;2023-05-17T02:59:44;77893.63;;;31.56
73673;BMP280;61972;19.480;-99.240;2023-05-17T03:02:10;77895.72;;;31.56
73673;BMP280;61972;19.480;-99.240;2023-05-17T03:04:36;77896.13;;;31.54
73673;BMP280;61972;19.480;-99.240;2023-05-17T03:07:05;77898.09;;;31.50
73673;BMP280;61972;19.480;-99.240;2023-05-17T03:09:31;77901.31;;;31.51
73673;BMP280;61972;19.480;-99.240;2023-05-17T03:11:57;77895.47;;;31.50
73673;BMP280;61972;19.480;-99.240;2023-05-17T03:14:26;77911.31;;;31.50
73673;BMP280;61972;19.480;-99.240;2023-05-17T03:16:56;77906.47;;;31.48
73673;BMP280;61972;19.480;-99.240;2023-05-17T03:19:22;77907.13;;;31.51
73673;BMP280;61972;19.480;-99.240;2023-05-17T03:21:48;77899.88;;;31.55
73673;BMP280;61972;19.480;-99.240;2023-05-17T03:24:14;77901.00;;;31.56
73673;BMP280;61972;19.480;-99.240;2023-05-17T03:26:40;77911.56;;;31.56
73673;BMP280;61972;19.480;-99.240;2023-05-17T03:29:07;77909.91;;;31.54
73673;BMP280;61972;19.480;-99.240;2023-05-17T03:31:33;77915.06;;;31.51
73673;BMP280;61972;19.480;-99.240;2023-05-17T03:34:01;77912.44;;;31.51
73673;BMP280;61972;19.480;-99.240;2023-05-17T03:36:27;77923.00;;;31.51
73673;BMP280;61972;19.480;-99.240;2023-05-17T03:38:53;77923.00;;;31.51
73673;BMP280;61972;19.480;-99.240;2023-05-17T03:41:20;77918.22;;;31.52
73673;BMP280;61972;19.480;-99.240;2023-05-17T03:43:49;77930.47;;;31.54
73673;BMP280;61972;19.480;-99.240;2023-05-17T03:46:15;77927.84;;;31.54
73673;BMP280;61972;19.480;-99.240;2023-05-17T03:48:41;77929.91;;;31.53
73673;BMP280;61972;19.480;-99.240;2023-05-17T03:51:07;77925.19;;;31.54
73673;BMP280;61972;19.480;-99.240;2023-05-17T03:53:36;77936.88;;;31.55
73673;BMP280;61972;19.480;-99.240;2023-05-17T03:56:08;77938.09;;;31.58
73673;BMP280;61972;19.480;-99.240;2023-05-17T03:58:34;77940.44;;;31.63
73673;BMP280;61972;19.480;-99.240;2023-05-17T04:01:02;77942.22;;;31.67
73673;BMP280;61972;19.480;-99.240;2023-05-17T04:03:29;77947.34;;;31.74
73673;BMP280;61972;19.480;-99.240;2023-05-17T04:06:03;77945.63;;;31.82
73673;BMP280;61972;19.480;-99.240;2023-05-17T04:08:38;77947.63;;;31.92
73673;BMP280;61972;19.480;-99.240;2023-05-17T04:11:04;77943.25;;;32.00
73673;BMP280;61972;19.480;-99.240;2023-05-17T04:13:41;77939.56;;;32.11
73673;BMP280;61972;19.480;-99.240;2023-05-17T04:16:30;77943.69;;;32.20
73673;BMP280;61972;19.480;-99.240;2023-05-17T04:18:59;77947.78;;;32.28
73673;BMP280;61972;19.480;-99.240;2023-05-17T04:21:25;77948.03;;;32.34
73673;BMP280;61972;19.480;-99.240;2023-05-17T04:23:55;77945.19;;;32.41
73673;BMP280;61972;19.480;-99.240;2023-05-17T04:26:25;77944.31;;;32.45
73673;BMP280;61972;19.480;-99.240;2023-05-17T04:28:55;77948.75;;;32.49
73673;BMP280;61972;19.480;-99.240;2023-05-17T04:31:21;77938.81;;;32.52
73673;BMP280;61972;19.480;-99.240;2023-05-17T04:33:47;77943.25;;;32.56
73673;BMP280;61972;19.480;-99.240;2023-05-17T04:36:13;77951.97;;;32.62
73673;BMP280;61972;19.480;-99.240;2023-05-17T04:38:43;77941.72;;;32.70
73673;BMP280;61972;19.480;-99.240;2023-05-17T04:41:09;77941.50;;;32.77
73673;BMP280;61972;19.480;-99.240;2023-05-17T04:43:41;77943.31;;;32.81
73673;BMP280;61972;19.480;-99.240;2023-05-17T04:46:10;77950.91;;;32.85
73673;BMP280;61972;19.480;-99.240;2023-05-17T04:48:36;77948.38;;;32.88
73673;BMP280;61972;19.480;-99.240;2023-05-17T04:51:06;77958.06;;;32.92
73673;BMP280;61972;19.480;-99.240;2023-05-17T04:53:33;77954.34;;;32.91
73673;BMP280;61972;19.480;-99.240;2023-05-17T04:55:59;77963.38;;;32.92
73673;BMP280;61972;19.480;-99.240;2023-05-17T04:58:25;77953.91;;;32.93
73673;BMP280;61972;19.480;-99.240;2023-05-17T05:00:52;77956.53;;;32.93
73673;BMP280;61972;19.480;-99.240;2023-05-17T05:03:18;77956.53;;;32.93
73673;BMP280;61972;19.480;-99.240;2023-05-17T05:05:44;77952.78;;;32.92
73673;BMP280;61972;19.480;-99.240;2023-05-17T05:08:14;77956.44;;;32.91
73673;BMP280;61972;19.480;-99.240;2023-05-17T05:10:40;77955.22;;;32.87
73673;BMP280;61972;19.480;-99.240;2023-05-17T05:13:10;77962.94;;;32.82
73673;BMP280;61972;19.480;-99.240;2023-05-17T05:15:59;77963.81;;;32.78
73673;BMP280;61972;19.480;-99.240;2023-05-17T05:18:28;77966.66;;;32.71
73673;BMP280;61972;19.480;-99.240;2023-05-17T05:21:14;77964.53;;;32.59
73673;BMP280;61972;19.480;-99.240;2023-05-17T05:33:05;77967.44;;;32.42
73673;BMP280;61972;19.480;-99.240;2023-05-17T05:35:34;77957.97;;;32.43
73673;BMP280;61972;19.480;-99.240;2023-05-17T05:38:03;77969.25;;;32.46
73673;BMP280;61972;19.480;-99.240;2023-05-17T05:40:29;77966.81;;;32.51
73673;BMP280;61972;19.480;-99.240;2023-05-17T05:42:55;77960.22;;;32.57
73673;BMP280;61972;19.480;-99.240;2023-05-17T05:45:22;77961.56;;;32.63
73673;BMP280;61972;19.480;-99.240;2023-05-17T05:47:51;77954.53;;;32.72
73673;BMP280;61972;19.480;-99.240;2023-05-17T05:50:20;77963.38;;;32.80
73673;BMP280;61972;19.480;-99.240;2023-05-17T05:52:46;77954.56;;;32.84
73673;BMP280;61972;19.480;-99.240;2023-05-17T05:55:13;77943.63;;;32.88
73673;BMP280;61972;19.480;-99.240;2023-05-17T05:57:49;77941.78;;;32.94
73673;BMP280;61972;19.480;-99.240;2023-05-17T06:00:23;77943.53;;;32.98
73673;BMP280;61972;19.480;-99.240;2023-05-17T06:02:50;77942.22;;;33.04
73673;BMP280;61972;19.480;-99.240;2023-05-17T06:05:18;77936.72;;;33.12
73673;BMP280;61972;19.480;-99.240;2023-05-17T06:07:47;77941.69;;;33.16
73673;BMP280;61972;19.480;-99.240;2023-05-17T06:10:16;77940.34;;;33.22
73673;BMP280;61972;19.480;-99.240;2023-05-17T06:12:42;77939.56;;;33.29
73673;BMP280;61972;19.480;-99.240;2023-05-17T06:15:09;77946.19;;;33.35
73673;BMP280;61972;19.480;-99.240;2023-05-17T06:17:38;77943.13;;;33.37
73673;BMP280;61972;19.480;-99.240;2023-05-17T06:20:08;77945.34;;;33.39
73673;BMP280;61972;19.480;-99.240;2023-05-17T06:22:34;77939.59;;;33.41
73673;BMP280;61972;19.480;-99.240;2023-05-17T06:25:06;77940.22;;;33.44
73673;BMP280;61972;19.480;-99.240;2023-05-17T06:27:36;77933.81;;;33.43
73673;BMP280;61972;19.480;-99.240;2023-05-17T06:30:05;77935.06;;;33.47
73673;BMP280;61972;19.480;-99.240;2023-05-17T06:32:32;77934.59;;;33.49
73673;BMP280;61972;19.480;-99.240;2023-05-17T06:35:09;77931.63;;;33.54
73673;BMP280;61972;19.480;-99.240;2023-05-17T06:37:58;77927.53;;;33.57
73673;BMP280;61972;19.480;-99.240;2023-05-17T06:40:28;77924.97;;;33.60
73673;BMP280;61972;19.480;-99.240;2023-05-17T06:43:12;77920.25;;;33.60
73673;BMP280;61972;19.480;-99.240;2023-05-17T06:45:44;77917.59;;;33.60
73673;BMP280;61972;19.480;-99.240;2023-05-17T06:48:11;77909.06;;;33.60
73673;BMP280;61972;19.480;-99.240;2023-05-17T06:50:51;77904.34;;;33.60
73673;BMP280;61972;19.480;-99.240;2023-05-17T06:56:30;77909.84;;;33.65
73673;BMP280;61972;19.480;-99.240;2023-05-17T06:59:12;77911.06;;;33.69
73673;BMP280;61972;19.480;-99.240;2023-05-17T07:01:39;77901.09;;;33.72
73673;BMP280;61972;19.480;-99.240;2023-05-17T07:04:13;77908.63;;;33.74
73673;BMP280;61972;19.480;-99.240;2023-05-17T07:07:11;77910.59;;;33.71
73673;BMP280;61972;19.480;-99.240;2023-05-17T07:09:42;77901.66;;;33.73
73673;BMP280;61972;19.480;-99.240;2023-05-17T07:12:08;77901.09;;;33.72
73673;BMP280;61972;19.480;-99.240;2023-05-17T07:14:35;77898.88;;;33.70
73673;BMP280;61972;19.480;-99.240;2023-05-17T07:17:01;77896.13;;;33.67
73673;BMP280;61972;19.480;-99.240;2023-05-17T07:19:27;77888.28;;;33.70
73673;BMP280;61972;19.480;-99.240;2023-05-17T07:21:54;77896.34;;;33.73
73673;BMP280;61972;19.480;-99.240;2023-05-17T07:24:36;77884.75;;;33.74
73673;BMP280;61972;19.480;-99.240;2023-05-17T07:27:11;77879.56;;;33.77
73673;BMP280;61972;19.480;-99.240;2023-05-17T07:29:38;77871.72;;;33.79
73673;BMP280;61972;19.480;-99.240;2023-05-17T07:32:04;77869.06;;;33.79
73673;BMP280;61972;19.480;-99.240;2023-05-17T07:34:33;77870.59;;;33.78
73673;BMP280;61972;19.480;-99.240;2023-05-17T07:37:00;77869.50;;;33.77
73673;BMP280;61972;19.480;-99.240;2023-05-17T07:39:26;77862.53;;;33.76
73673;BMP280;61972;19.480;-99.240;2023-05-17T07:41:53;77862.00;;;33.75
73673;BMP280;61972;19.480;-99.240;2023-05-17T07:44:19;77863.09;;;33.76
73673;BMP280;61972;19.480;-99.240;2023-05-17T07:46:46;77852.03;;;33.78
73673;BMP280;61972;19.480;-99.240;2023-05-17T07:49:22;77851.59;;;33.80
73673;BMP280;61972;19.480;-99.240;2023-05-17T07:51:51;77851.59;;;33.80
73673;BMP280;61972;19.480;-99.240;2023-05-17T07:54:22;77846.28;;;33.80
73673;BMP280;61972;19.480;-99.240;2023-05-17T07:56:51;77851.59;;;33.80
73673;BMP280;61972;19.480;-99.240;2023-05-17T07:59:23;77850.50;;;33.79
73673;BMP280;61972;19.480;-99.240;2023-05-17T08:01:53;77842.44;;;33.77
73673;BMP280;61972;19.480;-99.240;2023-05-17T08:04:19;77848.72;;;33.75
73673;BMP280;61972;19.480;-99.240;2023-05-17T08:06:45;77842.78;;;33.72
73673;BMP280;61972;19.480;-99.240;2023-05-17T08:09:15;77836.94;;;33.72
73673;BMP280;61972;19.480;-99.240;2023-05-17T08:11:41;77835.84;;;33.71
73673;BMP280;61972;19.480;-99.240;2023-05-17T08:14:15;77831.63;;;33.72
73673;BMP280;61972;19.480;-99.240;2023-05-17T08:17:02;77831.06;;;33.71
73673;BMP280;61972;19.480;-99.240;2023-05-17T08:19:29;77832.72;;;33.73
73673;BMP280;61972;19.480;-99.240;2023-05-17T08:21:55;77825.47;;;33.63
73673;BMP280;61972;19.480;-99.240;2023-05-17T08:24:21;77823.28;;;33.49
73673;BMP280;61972;19.480;-99.240;2023-05-17T08:26:47;77817.72;;;33.29
73673;BMP280;61972;19.480;-99.240;2023-05-17T08:29:13;77819.50;;;33.08
73673;BMP280;61972;19.480;-99.240;2023-05-17T08:31:40;77821.75;;;32.86
73673;BMP280;61972;19.480;-99.240;2023-05-17T08:34:06;77817.56;;;32.62
73673;BMP280;61972;19.480;-99.240;2023-05-17T08:36:32;77814.34;;;32.37
73673;BMP280;61972;19.480;-99.240;2023-05-17T08:38:59;77813.31;;;32.14
73673;BMP280;61972;19.480;-99.240;2023-05-17T08:41:25;77815.91;;;31.89
73673;BMP280;61972;19.480;-99.240;2023-05-17T08:43:53;77815.41;;;31.67
73673;BMP280;61972;19.480;-99.240;2023-05-17T08:46:22;77816.53;;;31.46
73673;BMP280;61972;19.480;-99.240;2023-05-17T08:48:52;77818.06;;;31.23
73673;BMP280;61972;19.480;-99.240;2023-05-17T08:51:24;77815.97;;;31.01
73673;BMP280;61972;19.480;-99.240;2023-05-17T08:53:51;77816.63;;;30.82
73673;BMP280;61972;19.480;-99.240;2023-05-17T08:56:19;77812.53;;;30.64
73673;BMP280;61972;19.480;-99.240;2023-05-17T08:58:47;77814.28;;;30.46
73673;BMP280;61972;19.480;-99.240;2023-05-17T09:01:14;77814.91;;;30.27
73673;BMP280;61972;19.480;-99.240;2023-05-17T09:03:45;77813.00;;;30.10
73673;BMP280;61972;19.480;-99.240;2023-05-17T09:06:26;77805.25;;;29.93
73673;BMP280;61972;19.480;-99.240;2023-05-17T09:08:53;77802.94;;;29.79
73673;BMP280;61972;19.480;-99.240;2023-05-17T09:11:30;77802.00;;;29.61
73673;BMP280;61972;19.480;-99.240;2023-05-17T09:14:03;77808.13;;;29.47
73673;BMP280;61972;19.480;-99.240;2023-05-17T09:16:32;77810.03;;;29.34
73673;BMP280;61972;19.480;-99.240;2023-05-17T09:19:00;77805.19;;;29.23
73673;BMP280;61972;19.480;-99.240;2023-05-17T09:21:27;77811.41;;;29.11
73673;BMP280;61972;19.480;-99.240;2023-05-17T09:23:55;77808.63;;;28.99
73673;BMP280;61972;19.480;-99.240;2023-05-17T09:26:24;77809.19;;;28.90
73673;BMP280;61972;19.480;-99.240;2023-05-17T09:28:51;77809.72;;;28.80
73673;BMP280;61972;19.480;-99.240;2023-05-17T09:31:18;77805.38;;;28.69
73673;BMP280;61972;19.480;-99.240;2023-05-17T09:33:45;77803.28;;;28.60
73673;BMP280;61972;19.480;-99.240;2023-05-17T09:36:19;77808.00;;;28.50
73673;BMP280;61972;19.480;-99.240;2023-05-17T09:39:15;77800.44;;;28.38
73673;BMP280;61972;19.480;-99.240;2023-05-17T09:41:46;77796.84;;;28.30
73673;BMP280;61972;19.480;-99.240;2023-05-17T09:44:13;77799.59;;;28.22
73673;BMP280;61972;19.480;-99.240;2023-05-17T09:46:50;77796.53;;;28.15
73673;BMP280;61972;19.480;-99.240;2023-05-17T09:49:20;77804.50;;;28.07
73673;BMP280;61972;19.480;-99.240;2023-05-17T09:51:47;77800.88;;;27.99
73673;BMP280;61972;19.480;-99.240;2023-05-17T09:54:14;77797.38;;;27.94
73673;BMP280;61972;19.480;-99.240;2023-05-17T09:56:43;77805.38;;;27.86
73673;BMP280;61972;19.480;-99.240;2023-05-17T09:59:14;77807.53;;;27.79
73673;BMP280;61972;19.480;-99.240;2023-05-17T10:01:44;77809.31;;;27.73
73673;BMP280;61972;19.480;-99.240;2023-05-17T10:04:11;77805.81;;;27.67
73673;BMP280;61972;19.480;-99.240;2023-05-17T10:06:40;77808.16;;;27.62
73673;BMP280;61972;19.480;-99.240;2023-05-17T10:09:10;77802.59;;;27.57
73673;BMP280;61972;19.480;-99.240;2023-05-17T10:11:45;77807.50;;;27.52
73673;BMP280;61972;19.480;-99.240;2023-05-17T10:16:53;77806.91;;;27.42
73673;BMP280;61972;19.480;-99.240;2023-05-17T10:19:20;77806.59;;;27.37
73673;BMP280;61972;19.480;-99.240;2023-05-17T10:21:49;77814.31;;;27.34
73673;BMP280;61972;19.480;-99.240;2023-05-17T10:24:15;77811.41;;;27.29
73673;BMP280;61972;19.480;-99.240;2023-05-17T10:26:42;77813.31;;;27.26
73673;BMP280;61972;19.480;-99.240;2023-05-17T10:29:09;77806.22;;;27.22
73673;BMP280;61972;19.480;-99.240;2023-05-17T10:31:35;77801.75;;;27.18
73673;BMP280;61972;19.480;-99.240;2023-05-17T10:34:03;77803.69;;;27.14
73673;BMP280;61972;19.480;-99.240;2023-05-17T10:36:32;77804.47;;;27.10
73673;BMP280;61972;19.480;-99.240;2023-05-17T10:38:59;77800.59;;;27.07
73673;BMP280;61972;19.480;-99.240;2023-05-17T10:41:27;77806.63;;;27.03
73673;BMP280;61972;19.480;-99.240;2023-05-17T10:43:55;77802.19;;;26.99
73673;BMP280;61972;19.480;-99.240;2023-05-17T10:46:22;77807.28;;;26.96
73673;BMP280;61972;19.480;-99.240;2023-05-17T10:48:53;77801.84;;;26.93
73673;BMP280;61972;19.480;-99.240;2023-05-17T10:51:27;77799.09;;;26.91
73673;BMP280;61972;19.480;-99.240;2023-05-17T10:54:02;77806.25;;;26.88
73673;BMP280;61972;19.480;-99.240;2023-05-17T10:56:32;77802.91;;;26.85
73673;BMP280;61972;19.480;-99.240;2023-05-17T10:59:21;77808.91;;;26.81
73673;BMP280;61972;19.480;-99.240;2023-05-17T11:02:00;77803.53;;;26.78
73673;BMP280;61972;19.480;-99.240;2023-05-17T11:04:39;77805.44;;;26.75
73673;BMP280;61972;19.480;-99.240;2023-05-17T11:09:50;77816.72;;;26.71
73673;BMP280;61972;19.480;-99.240;2023-05-17T11:12:28;77803.28;;;26.66
73673;BMP280;61972;19.480;-99.240;2023-05-17T11:14:55;77811.53;;;26.64
73673;BMP280;61972;19.480;-99.240;2023-05-17T11:17:24;77814.53;;;26.62
73673;BMP280;61972;19.480;-99.240;2023-05-17T11:22:27;77819.50;;;26.56
73673;BMP280;61972;19.480;-99.240;2023-05-17T11:24:56;77819.88;;;26.54
73673;BMP280;61972;19.480;-99.240;2023-05-17T11:27:23;77828.13;;;26.52
73673;BMP280;61972;19.480;-99.240;2023-05-17T11:29:53;77828.50;;;26.50
73673;BMP280;61972;19.480;-99.240;2023-05-17T11:32:31;77834.53;;;26.46
73673;BMP280;61972;19.480;-99.240;2023-05-17T11:35:00;77838.66;;;26.45
73673;BMP280;61972;19.480;-99.240;2023-05-17T11:37:30;77839.44;;;26.41
73673;BMP280;61972;19.480;-99.240;2023-05-17T11:40:04;77848.81;;;26.40
73673;BMP280;61972;19.480;-99.240;2023-05-17T11:42:34;77853.31;;;26.37
73673;BMP280;61972;19.480;-99.240;2023-05-17T11:45:03;77854.84;;;26.36
73673;BMP280;61972;19.480;-99.240;2023-05-17T11:47:30;77852.59;;;26.34
73673;BMP280;61972;19.480;-99.240;2023-05-17T11:50:01;77858.25;;;26.32
73673;BMP280;61972;19.480;-99.240;2023-05-17T11:52:28;77859.75;;;26.31
73673;BMP280;61972;19.480;-99.240;2023-05-17T11:54:56;77869.50;;;26.28
73673;BMP280;61972;19.480;-99.240;2023-05-17T11:57:30;77867.28;;;26.26
73673;BMP280;61972;19.480;-99.240;2023-05-17T12:00:01;77868.78;;;26.25
73673;BMP280;61972;19.480;-99.240;2023-05-17T12:02:30;77867.09;;;26.23
73673;BMP280;61972;19.480;-99.240;2023-05-17T12:04:56;77873.28;;;26.21
73673;BMP280;61972;19.480;-99.240;2023-05-17T12:07:24;77871.06;;;26.19
73673;BMP280;61972;19.480;-99.240;2023-05-17T12:09:51;77877.81;;;26.18
73673;BMP280;61972;19.480;-99.240;2023-05-17T12:12:18;77873.50;;;26.17
73673;BMP280;61972;19.480;-99.240;2023-05-17T12:14:46;77879.69;;;26.15
73673;BMP280;61972;19.480;-99.240;2023-05-17T12:17:21;77881.59;;;26.12
73673;BMP280;61972;19.480;-99.240;2023-05-17T12:19:53;77884.59;;;26.10
73673;BMP280;61972;19.480;-99.240;2023-05-17T12:22:19;77878.25;;;26.09
73673;BMP280;61972;19.480;-99.240;2023-05-17T12:24:45;77876.56;;;26.08
73673;BMP280;61972;19.480;-99.240;2023-05-17T12:27:12;77874.88;;;26.06
73673;BMP280;61972;19.480;-99.240;2023-05-17T12:29:38;77880.53;;;26.04
73673;BMP280;61972;19.480;-99.240;2023-05-17T12:32:05;77879.41;;;26.03
73673;BMP280;61972;19.480;-99.240;2023-05-17T12:34:33;77879.97;;;26.03
73673;BMP280;61972;19.480;-99.240;2023-05-17T12:37:00;77887.06;;;26.00
73673;BMP280;61972;19.480;-99.240;2023-05-17T12:39:26;77887.50;;;25.98
73673;BMP280;61972;19.480;-99.240;2023-05-17T12:41:52;77892.16;;;25.98
73673;BMP280;61972;19.480;-99.240;2023-05-17T12:44:19;77904.69;;;25.97
73673;BMP280;61972;19.480;-99.240;2023-05-17T12:46:48;77899.28;;;25.95
73673;BMP280;61972;19.480;-99.240;2023-05-17T12:49:23;77903.38;;;25.94
73673;BMP280;61972;19.480;-99.240;2023-05-17T12:51:49;77895.94;;;25.92
73673;BMP280;61972;19.480;-99.240;2023-05-17T12:54:28;77900.06;;;25.91
73673;BMP280;61972;19.480;-99.240;2023-05-17T12:56:55;77898.94;;;25.90
73673;BMP280;61972;19.480;-99.240;2023-05-17T12:59:24;77899.88;;;25.88
73673;BMP280;61972;19.480;-99.240;2023-05-17T13:01:56;77895.00;;;25.86
73673;BMP280;61972;19.480;-99.240;2023-05-17T13:04:29;77893.38;;;25.84
73673;BMP280;61972;19.480;-99.240;2023-05-17T13:07:05;77897.47;;;25.83
73673;BMP280;61972;19.480;-99.240;2023-05-17T13:09:32;77910.00;;;25.83
73673;BMP280;61972;19.480;-99.240;2023-05-17T13:12:05;77903.09;;;25.81
73673;BMP280;61972;19.480;-99.240;2023-05-17T13:14:36;77904.03;;;25.80
73673;BMP280;61972;19.480;-99.240;2023-05-17T13:17:35;77909.66;;;25.78
73673;BMP280;61972;19.480;-99.240;2023-05-17T13:20:01;77908.00;;;25.76
73673;BMP280;61972;19.480;-99.240;2023-05-17T13:22:28;77897.53;;;25.76
73673;BMP280;61972;19.480;-99.240;2023-05-17T13:24:57;77908.38;;;25.74
73673;BMP280;61972;19.480;-99.240;2023-05-17T13:27:23;77897.34;;;25.74
73673;BMP280;61972;19.480;-99.240;2023-05-17T13:29:50;77907.25;;;25.73
73673;BMP280;61972;19.480;-99.240;2023-05-17T13:32:16;77911.94;;;25.73
73673;BMP280;61972;19.480;-99.240;2023-05-17T13:34:42;77906.72;;;25.73
73673;BMP280;61972;19.480;-99.240;2023-05-17T13:37:11;77907.66;;;25.71
73673;BMP280;61972;19.480;-99.240;2023-05-17T13:39:38;77904.47;;;25.71
73673;BMP280;61972;19.480;-99.240;2023-05-17T13:42:04;77897.56;;;25.69
73673;BMP280;61972;19.480;-99.240;2023-05-17T13:44:39;77907.47;;;25.69
73673;BMP280;61972;19.480;-99.240;2023-05-17T13:47:17;77906.91;;;25.68
73673;BMP280;61972;19.480;-99.240;2023-05-17T13:49:43;77904.28;;;25.68
73673;BMP280;61972;19.480;-99.240;2023-05-17T13:52:09;77906.72;;;25.65
73673;BMP280;61972;19.480;-99.240;2023-05-17T13:54:40;77906.72;;;25.65
73673;BMP280;61972;19.480;-99.240;2023-05-17T13:57:06;77905.63;;;25.64
73673;BMP280;61972;19.480;-99.240;2023-05-17T13:59:33;77905.63;;;25.64
73673;BMP280;61972;19.480;-99.240;2023-05-17T14:01:59;77903.00;;;25.64
73673;BMP280;61972;19.480;-99.240;2023-05-17T14:04:25;77907.69;;;25.64
73673;BMP280;61972;19.480;-99.240;2023-05-17T14:06:52;77906.56;;;25.63
73673;BMP280;61972;19.480;-99.240;2023-05-17T14:09:18;77915.91;;;25.62
73673;BMP280;61972;19.480;-99.240;2023-05-17T14:11:44;77913.28;;;25.62
73673;BMP280;61972;19.480;-99.240;2023-05-17T14:14:11;77915.91;;;25.62
73673;BMP280;61972;19.480;-99.240;2023-05-17T14:16:37;77908.44;;;25.60
73673;BMP280;61972;19.480;-99.240;2023-05-17T14:19:03;77908.44;;;25.60
73673;BMP280;61972;19.480;-99.240;2023-05-17T14:21:29;77905.84;;;25.60
73673;BMP280;61972;19.480;-99.240;2023-05-17T14:23:56;77912.56;;;25.59
73673;BMP280;61972;19.480;-99.240;2023-05-17T14:26:22;77912.00;;;25.58